sensor_id;sensor_type;location;lat;lon;timestamp;temperature;humidity
36434;DHT22;31691;51.972;5.672;2023-08-07T00:01:44;18.40;99.90
36434;DHT22;31691;51.972;5.672;2023-08-07T00:06:46;18.00;99.90
36434;DHT22;31691;51.972;5.672;2023-08-07T00:11:48;18.30;99.90
36434;DHT22;31691;51.972;5.672;2023-08-07T00:16:50;18.40;99.90
36434;DHT22;31691;51.972;5.672;2023-08-07T00:21:52;18.20;99.90
36434;DHT22;31691;51.972;5.672;2023-08-07T00:26:55;18.20;99.90
36434;DHT22;31691;51.972;5.672;2023-08-07T00:31:58;18.30;99.90
36434;DHT22;31691;51.972;5.672;2023-08-07T00:37:00;18.40;99.90
36434;DHT22;31691;51.972;5.672;2023-08-07T00:42:03;18.50;99.90
36434;DHT22;31691;51.972;5.672;2023-08-07T00:47:05;18.70;99.90
36434;DHT22;31691;51.972;5.672;2023-08-07T00:52:08;18.90;99.90
36434;DHT22;31691;51.972;5.672;2023-08-07T00:57:11;18.80;99.90
36434;DHT22;31691;51.972;5.672;2023-08-07T01:02:15;18.90;99.90
36434;DHT22;31691;51.972;5.672;2023-08-07T01:07:17;18.70;99.90
36434;DHT22;31691;51.972;5.672;2023-08-07T01:12:24;18.60;99.90
36434;DHT22;31691;51.972;5.672;2023-08-07T01:17:30;18.60;99.90
36434;DHT22;31691;51.972;5.672;2023-08-07T01:22:35;18.50;99.90
36434;DHT22;31691;51.972;5.672;2023-08-07T01:27:46;18.80;99.90
36434;DHT22;31691;51.972;5.672;2023-08-07T01:32:59;18.90;99.90
36434;DHT22;31691;51.972;5.672;2023-08-07T01:38:05;18.70;99.90
36434;DHT22;31691;51.972;5.672;2023-08-07T01:43:08;18.70;99.90
36434;DHT22;31691;51.972;5.672;2023-08-07T01:48:11;19.00;99.90
36434;DHT22;31691;51.972;5.672;2023-08-07T01:53:13;19.30;99.90
36434;DHT22;31691;51.972;5.672;2023-08-07T01:58:15;19.30;99.90
36434;DHT22;31691;51.972;5.672;2023-08-07T02:03:18;19.00;99.90
36434;DHT22;31691;51.972;5.672;2023-08-07T02:08:21;19.00;99.90
36434;DHT22;31691;51.972;5.672;2023-08-07T02:13:23;19.10;99.90
36434;DHT22;31691;51.972;5.672;2023-08-07T02:18:25;19.40;99.90
36434;DHT22;31691;51.972;5.672;2023-08-07T02:23:27;19.20;99.90
36434;DHT22;31691;51.972;5.672;2023-08-07T02:28:31;19.20;99.90
36434;DHT22;31691;51.972;5.672;2023-08-07T02:33:33;19.30;99.90
36434;DHT22;31691;51.972;5.672;2023-08-07T02:38:35;19.00;99.90
36434;DHT22;31691;51.972;5.672;2023-08-07T02:43:37;18.80;99.90
36434;DHT22;31691;51.972;5.672;2023-08-07T02:48:39;18.50;99.90
36434;DHT22;31691;51.972;5.672;2023-08-07T02:53:42;18.70;99.90
36434;DHT22;31691;51.972;5.672;2023-08-07T02:58:44;19.00;99.90
36434;DHT22;31691;51.972;5.672;2023-08-07T03:03:46;19.10;99.90
36434;DHT22;31691;51.972;5.672;2023-08-07T03:08:48;19.40;99.90
36434;DHT22;31691;51.972;5.672;2023-08-07T03:13:50;19.40;99.90
36434;DHT22;31691;51.972;5.672;2023-08-07T03:18:52;19.30;99.90
36434;DHT22;31691;51.972;5.672;2023-08-07T03:23:54;19.10;99.90
36434;DHT22;31691;51.972;5.672;2023-08-07T03:28:57;19.10;99.90
36434;DHT22;31691;51.972;5.672;2023-08-07T03:33:59;19.00;99.90
36434;DHT22;31691;51.972;5.672;2023-08-07T03:39:01;18.80;99.90
36434;DHT22;31691;51.972;5.672;2023-08-07T03:44:03;18.90;99.90
36434;DHT22;31691;51.972;5.672;2023-08-07T03:49:05;18.90;99.90
36434;DHT22;31691;51.972;5.672;2023-08-07T03:54:08;18.90;99.90
36434;DHT22;31691;51.972;5.672;2023-08-07T03:59:10;19.10;99.90
36434;DHT22;31691;51.972;5.672;2023-08-07T04:04:12;18.60;99.90
36434;DHT22;31691;51.972;5.672;2023-08-07T04:09:14;18.60;99.90
36434;DHT22;31691;51.972;5.672;2023-08-07T04:14:18;18.40;99.90
36434;DHT22;31691;51.972;5.672;2023-08-07T04:19:20;18.40;99.90
36434;DHT22;31691;51.972;5.672;2023-08-07T04:24:22;18.40;99.90
36434;DHT22;31691;51.972;5.672;2023-08-07T04:29:25;18.40;99.90
36434;DHT22;31691;51.972;5.672;2023-08-07T04:34:27;18.60;99.90
36434;DHT22;31691;51.972;5.672;2023-08-07T04:39:29;18.60;99.90
36434;DHT22;31691;51.972;5.672;2023-08-07T04:44:32;18.80;99.90
36434;DHT22;31691;51.972;5.672;2023-08-07T04:49:34;18.80;99.90
36434;DHT22;31691;51.972;5.672;2023-08-07T04:54:36;19.00;99.90
36434;DHT22;31691;51.972;5.672;2023-08-07T04:59:38;19.10;99.90
36434;DHT22;31691;51.972;5.672;2023-08-07T05:04:40;19.00;99.90
36434;DHT22;31691;51.972;5.672;2023-08-07T05:09:43;19.20;99.90
36434;DHT22;31691;51.972;5.672;2023-08-07T05:14:45;19.20;99.90
36434;DHT22;31691;51.972;5.672;2023-08-07T05:19:47;19.10;99.90
36434;DHT22;31691;51.972;5.672;2023-08-07T05:24:49;19.10;99.90
36434;DHT22;31691;51.972;5.672;2023-08-07T05:29:52;18.90;99.90
36434;DHT22;31691;51.972;5.672;2023-08-07T05:34:54;19.10;99.90
36434;DHT22;31691;51.972;5.672;2023-08-07T05:39:56;19.40;99.90
36434;DHT22;31691;51.972;5.672;2023-08-07T05:44:58;19.40;99.90
36434;DHT22;31691;51.972;5.672;2023-08-07T05:50:01;19.30;99.90
36434;DHT22;31691;51.972;5.672;2023-08-07T05:55:04;19.20;99.90
36434;DHT22;31691;51.972;5.672;2023-08-07T06:00:09;19.20;99.90
36434;DHT22;31691;51.972;5.672;2023-08-07T06:05:16;18.90;99.90
36434;DHT22;31691;51.972;5.672;2023-08-07T06:10:18;19.10;99.90
36434;DHT22;31691;51.972;5.672;2023-08-07T06:15:20;19.10;99.90
36434;DHT22;31691;51.972;5.672;2023-08-07T06:20:22;19.10;99.90
36434;DHT22;31691;51.972;5.672;2023-08-07T06:25:24;19.20;99.90
36434;DHT22;31691;51.972;5.672;2023-08-07T06:30:26;19.50;99.90
36434;DHT22;31691;51.972;5.672;2023-08-07T06:35:29;19.70;99.90
36434;DHT22;31691;51.972;5.672;2023-08-07T06:40:31;19.60;99.90
36434;DHT22;31691;51.972;5.672;2023-08-07T06:45:33;19.70;99.90
36434;DHT22;31691;51.972;5.672;2023-08-07T06:50:35;19.90;99.90
36434;DHT22;31691;51.972;5.672;2023-08-07T06:55:38;20.00;99.90
36434;DHT22;31691;51.972;5.672;2023-08-07T07:00:40;20.10;99.90
36434;DHT22;31691;51.972;5.672;2023-08-07T07:05:42;20.50;99.90
36434;DHT22;31691;51.972;5.672;2023-08-07T07:10:45;20.80;99.90
36434;DHT22;31691;51.972;5.672;2023-08-07T07:15:52;20.90;99.90
36434;DHT22;31691;51.972;5.672;2023-08-07T07:20:58;20.80;99.90
36434;DHT22;31691;51.972;5.672;2023-08-07T07:26:00;21.10;99.90
36434;DHT22;31691;51.972;5.672;2023-08-07T07:31:02;21.20;99.90
36434;DHT22;31691;51.972;5.672;2023-08-07T07:36:06;21.40;99.90
36434;DHT22;31691;51.972;5.672;2023-08-07T07:41:08;22.00;99.90
36434;DHT22;31691;51.972;5.672;2023-08-07T07:46:13;22.20;99.90
36434;DHT22;31691;51.972;5.672;2023-08-07T07:51:15;21.10;99.90
36434;DHT22;31691;51.972;5.672;2023-08-07T07:56:17;20.80;99.90
36434;DHT22;31691;51.972;5.672;2023-08-07T08:01:20;20.10;99.90
36434;DHT22;31691;51.972;5.672;2023-08-07T08:06:22;19.80;99.90
36434;DHT22;31691;51.972;5.672;2023-08-07T08:11:24;20.30;99.90
36434;DHT22;31691;51.972;5.672;2023-08-07T08:16:26;20.80;99.90
36434;DHT22;31691;51.972;5.672;2023-08-07T08:21:28;20.90;99.90
36434;DHT22;31691;51.972;5.672;2023-08-07T08:26:33;20.70;99.90
36434;DHT22;31691;51.972;5.672;2023-08-07T08:31:35;20.90;99.90
36434;DHT22;31691;51.972;5.672;2023-08-07T08:36:37;21.20;99.90
36434;DHT22;31691;51.972;5.672;2023-08-07T08:41:39;21.30;99.90
36434;DHT22;31691;51.972;5.672;2023-08-07T08:46:43;21.60;99.90
36434;DHT22;31691;51.972;5.672;2023-08-07T08:51:45;21.50;99.90
36434;DHT22;31691;51.972;5.672;2023-08-07T08:56:49;21.80;99.90
36434;DHT22;31691;51.972;5.672;2023-08-07T09:01:51;21.50;99.90
36434;DHT22;31691;51.972;5.672;2023-08-07T09:06:54;20.80;99.90
36434;DHT22;31691;51.972;5.672;2023-08-07T09:11:58;20.30;99.90
36434;DHT22;31691;51.972;5.672;2023-08-07T09:17:01;20.60;99.90
36434;DHT22;31691;51.972;5.672;2023-08-07T09:22:04;20.90;99.90
36434;DHT22;31691;51.972;5.672;2023-08-07T09:27:07;21.20;99.90
36434;DHT22;31691;51.972;5.672;2023-08-07T09:32:13;20.60;99.90
36434;DHT22;31691;51.972;5.672;2023-08-07T09:37:15;20.40;99.90
36434;DHT22;31691;51.972;5.672;2023-08-07T09:42:18;20.10;99.90
36434;DHT22;31691;51.972;5.672;2023-08-07T09:47:20;20.40;99.90
36434;DHT22;31691;51.972;5.672;2023-08-07T09:52:24;20.60;99.90
36434;DHT22;31691;51.972;5.672;2023-08-07T09:57:27;20.60;99.90
36434;DHT22;31691;51.972;5.672;2023-08-07T10:02:30;21.20;99.90
36434;DHT22;31691;51.972;5.672;2023-08-07T10:07:33;21.40;99.90
36434;DHT22;31691;51.972;5.672;2023-08-07T10:12:36;22.20;99.90
36434;DHT22;31691;51.972;5.672;2023-08-07T10:17:38;22.70;99.90
36434;DHT22;31691;51.972;5.672;2023-08-07T10:22:41;22.60;99.90
36434;DHT22;31691;51.972;5.672;2023-08-07T10:27:44;22.90;99.90
36434;DHT22;31691;51.972;5.672;2023-08-07T10:32:47;22.90;99.90
36434;DHT22;31691;51.972;5.672;2023-08-07T10:37:51;23.20;99.90
36434;DHT22;31691;51.972;5.672;2023-08-07T10:48:07;23.10;99.90
36434;DHT22;31691;51.972;5.672;2023-08-07T10:53:19;21.70;99.90
36434;DHT22;31691;51.972;5.672;2023-08-07T11:03:36;22.10;99.90
36434;DHT22;31691;51.972;5.672;2023-08-07T11:08:39;22.30;99.90
36434;DHT22;31691;51.972;5.672;2023-08-07T11:13:41;22.90;99.90
36434;DHT22;31691;51.972;5.672;2023-08-07T11:18:44;23.30;99.90
36434;DHT22;31691;51.972;5.672;2023-08-07T11:23:46;24.10;99.90
36434;DHT22;31691;51.972;5.672;2023-08-07T11:28:49;24.40;99.90
36434;DHT22;31691;51.972;5.672;2023-08-07T11:33:52;24.80;99.90
36434;DHT22;31691;51.972;5.672;2023-08-07T11:38:54;24.50;99.90
36434;DHT22;31691;51.972;5.672;2023-08-07T11:43:57;24.70;99.90
36434;DHT22;31691;51.972;5.672;2023-08-07T11:49:00;24.50;99.90
36434;DHT22;31691;51.972;5.672;2023-08-07T11:54:03;24.40;99.90
36434;DHT22;31691;51.972;5.672;2023-08-07T11:59:05;24.40;99.90
36434;DHT22;31691;51.972;5.672;2023-08-07T12:04:09;23.70;99.90
36434;DHT22;31691;51.972;5.672;2023-08-07T12:09:11;23.30;99.90
36434;DHT22;31691;51.972;5.672;2023-08-07T12:14:15;23.00;99.90
36434;DHT22;31691;51.972;5.672;2023-08-07T12:19:19;23.10;99.90
36434;DHT22;31691;51.972;5.672;2023-08-07T12:24:22;23.30;99.90
36434;DHT22;31691;51.972;5.672;2023-08-07T12:29:25;23.40;99.90
36434;DHT22;31691;51.972;5.672;2023-08-07T12:34:31;23.50;99.90
36434;DHT22;31691;51.972;5.672;2023-08-07T12:39:54;23.90;99.90
36434;DHT22;31691;51.972;5.672;2023-08-07T12:44:59;24.30;99.80
36434;DHT22;31691;51.972;5.672;2023-08-07T12:50:02;24.10;99.90
36434;DHT22;31691;51.972;5.672;2023-08-07T12:55:05;23.90;99.90
36434;DHT22;31691;51.972;5.672;2023-08-07T13:00:09;23.60;99.90
36434;DHT22;31691;51.972;5.672;2023-08-07T13:05:15;23.00;99.90
36434;DHT22;31691;51.972;5.672;2023-08-07T13:10:18;22.80;99.90
36434;DHT22;31691;51.972;5.672;2023-08-07T13:15:21;22.80;99.90
36434;DHT22;31691;51.972;5.672;2023-08-07T13:20:23;22.30;99.90
36434;DHT22;31691;51.972;5.672;2023-08-07T13:25:25;22.20;99.90
36434;DHT22;31691;51.972;5.672;2023-08-07T13:30:27;22.90;99.90
36434;DHT22;31691;51.972;5.672;2023-08-07T13:35:37;23.60;99.20
36434;DHT22;31691;51.972;5.672;2023-08-07T13:40:39;23.70;98.80
36434;DHT22;31691;51.972;5.672;2023-08-07T13:45:42;23.50;99.20
36434;DHT22;31691;51.972;5.672;2023-08-07T13:50:44;23.30;98.80
36434;DHT22;31691;51.972;5.672;2023-08-07T13:55:46;23.50;98.70
36434;DHT22;31691;51.972;5.672;2023-08-07T14:00:49;23.80;97.90
36434;DHT22;31691;51.972;5.672;2023-08-07T14:05:51;24.20;98.00
36434;DHT22;31691;51.972;5.672;2023-08-07T14:10:53;24.80;95.70
36434;DHT22;31691;51.972;5.672;2023-08-07T14:15:55;25.20;94.30
36434;DHT22;31691;51.972;5.672;2023-08-07T14:20:58;24.80;93.10
36434;DHT22;31691;51.972;5.672;2023-08-07T14:26:04;24.80;92.60
36434;DHT22;31691;51.972;5.672;2023-08-07T14:31:08;24.90;93.30
36434;DHT22;31691;51.972;5.672;2023-08-07T14:36:11;25.00;93.70
36434;DHT22;31691;51.972;5.672;2023-08-07T14:41:13;25.20;92.30
36434;DHT22;31691;51.972;5.672;2023-08-07T14:46:16;24.80;93.30
36434;DHT22;31691;51.972;5.672;2023-08-07T14:51:20;24.90;93.10
36434;DHT22;31691;51.972;5.672;2023-08-07T14:56:22;24.90;93.70
36434;DHT22;31691;51.972;5.672;2023-08-07T15:01:25;24.80;94.60
36434;DHT22;31691;51.972;5.672;2023-08-07T15:06:27;24.70;94.20
36434;DHT22;31691;51.972;5.672;2023-08-07T15:11:31;25.00;94.10
36434;DHT22;31691;51.972;5.672;2023-08-07T15:16:34;25.60;92.80
36434;DHT22;31691;51.972;5.672;2023-08-07T15:21:39;25.60;92.50
36434;DHT22;31691;51.972;5.672;2023-08-07T15:26:41;25.60;93.10
36434;DHT22;31691;51.972;5.672;2023-08-07T15:31:43;25.60;93.50
36434;DHT22;31691;51.972;5.672;2023-08-07T15:36:46;25.20;93.20
36434;DHT22;31691;51.972;5.672;2023-08-07T15:41:48;24.90;93.50
36434;DHT22;31691;51.972;5.672;2023-08-07T15:46:50;25.00;93.80
36434;DHT22;31691;51.972;5.672;2023-08-07T15:51:52;24.70;95.70
36434;DHT22;31691;51.972;5.672;2023-08-07T15:56:54;24.40;97.30
36434;DHT22;31691;51.972;5.672;2023-08-07T16:02:00;24.10;98.10
36434;DHT22;31691;51.972;5.672;2023-08-07T16:07:03;23.80;98.70
36434;DHT22;31691;51.972;5.672;2023-08-07T16:12:05;23.70;98.40
36434;DHT22;31691;51.972;5.672;2023-08-07T16:17:08;23.90;98.40
36434;DHT22;31691;51.972;5.672;2023-08-07T16:22:10;23.90;98.50
36434;DHT22;31691;51.972;5.672;2023-08-07T16:27:12;24.00;98.60
36434;DHT22;31691;51.972;5.672;2023-08-07T16:32:14;23.80;97.90
36434;DHT22;31691;51.972;5.672;2023-08-07T16:37:17;23.50;98.90
36434;DHT22;31691;51.972;5.672;2023-08-07T16:42:19;23.40;99.20
36434;DHT22;31691;51.972;5.672;2023-08-07T16:47:22;23.40;99.20
36434;DHT22;31691;51.972;5.672;2023-08-07T16:52:25;23.50;99.90
36434;DHT22;31691;51.972;5.672;2023-08-07T16:57:28;24.00;99.50
36434;DHT22;31691;51.972;5.672;2023-08-07T17:02:30;23.80;98.20
36434;DHT22;31691;51.972;5.672;2023-08-07T17:07:33;23.40;98.70
36434;DHT22;31691;51.972;5.672;2023-08-07T17:12:36;23.10;99.10
36434;DHT22;31691;51.972;5.672;2023-08-07T17:17:38;23.10;99.20
36434;DHT22;31691;51.972;5.672;2023-08-07T17:22:40;23.30;98.80
36434;DHT22;31691;51.972;5.672;2023-08-07T17:27:43;24.20;98.40
36434;DHT22;31691;51.972;5.672;2023-08-07T17:32:45;24.50;97.10
36434;DHT22;31691;51.972;5.672;2023-08-07T17:37:47;24.50;97.70
36434;DHT22;31691;51.972;5.672;2023-08-07T17:42:50;24.40;97.40
36434;DHT22;31691;51.972;5.672;2023-08-07T17:47:52;24.60;97.50
36434;DHT22;31691;51.972;5.672;2023-08-07T17:52:55;24.80;97.30
36434;DHT22;31691;51.972;5.672;2023-08-07T17:57:58;24.90;97.30
36434;DHT22;31691;51.972;5.672;2023-08-07T18:03:00;24.50;98.00
36434;DHT22;31691;51.972;5.672;2023-08-07T18:08:03;24.70;97.50
36434;DHT22;31691;51.972;5.672;2023-08-07T18:13:05;24.60;97.70
36434;DHT22;31691;51.972;5.672;2023-08-07T18:18:07;24.50;97.90
36434;DHT22;31691;51.972;5.672;2023-08-07T18:23:10;24.00;98.10
36434;DHT22;31691;51.972;5.672;2023-08-07T18:28:12;23.70;99.10
36434;DHT22;31691;51.972;5.672;2023-08-07T18:33:14;23.50;99.40
36434;DHT22;31691;51.972;5.672;2023-08-07T18:38:16;23.50;99.90
36434;DHT22;31691;51.972;5.672;2023-08-07T18:43:18;23.60;99.90
36434;DHT22;31691;51.972;5.672;2023-08-07T18:48:20;23.60;99.90
36434;DHT22;31691;51.972;5.672;2023-08-07T18:53:23;23.30;99.90
36434;DHT22;31691;51.972;5.672;2023-08-07T18:58:25;23.20;99.90
36434;DHT22;31691;51.972;5.672;2023-08-07T19:03:27;23.10;99.90
36434;DHT22;31691;51.972;5.672;2023-08-07T19:08:30;23.00;99.90
36434;DHT22;31691;51.972;5.672;2023-08-07T19:13:32;22.90;99.90
36434;DHT22;31691;51.972;5.672;2023-08-07T19:18:34;22.90;99.90
36434;DHT22;31691;51.972;5.672;2023-08-07T19:23:37;22.80;99.90
36434;DHT22;31691;51.972;5.672;2023-08-07T19:28:39;22.80;99.90
36434;DHT22;31691;51.972;5.672;2023-08-07T19:33:42;22.50;99.90
36434;DHT22;31691;51.972;5.672;2023-08-07T19:38:44;22.40;99.90
36434;DHT22;31691;51.972;5.672;2023-08-07T19:43:46;22.30;99.90
36434;DHT22;31691;51.972;5.672;2023-08-07T19:48:49;22.30;99.90
36434;DHT22;31691;51.972;5.672;2023-08-07T19:53:51;22.10;99.90
36434;DHT22;31691;51.972;5.672;2023-08-07T19:59:03;22.00;99.90
36434;DHT22;31691;51.972;5.672;2023-08-07T20:04:06;22.00;99.90
36434;DHT22;31691;51.972;5.672;2023-08-07T20:09:09;22.00;99.90
36434;DHT22;31691;51.972;5.672;2023-08-07T20:14:11;21.90;99.90
36434;DHT22;31691;51.972;5.672;2023-08-07T20:19:13;21.90;99.90
36434;DHT22;31691;51.972;5.672;2023-08-07T20:24:16;21.90;99.90
36434;DHT22;31691;51.972;5.672;2023-08-07T20:29:18;21.80;99.90
36434;DHT22;31691;51.972;5.672;2023-08-07T20:34:21;21.70;99.90
36434;DHT22;31691;51.972;5.672;2023-08-07T20:39:23;21.70;99.90
36434;DHT22;31691;51.972;5.672;2023-08-07T20:44:25;21.70;99.90
36434;DHT22;31691;51.972;5.672;2023-08-07T20:49:27;21.90;99.90
36434;DHT22;31691;51.972;5.672;2023-08-07T20:54:30;22.10;99.90
36434;DHT22;31691;51.972;5.672;2023-08-07T20:59:32;22.10;99.90
36434;DHT22;31691;51.972;5.672;2023-08-07T21:04:34;22.20;99.90
36434;DHT22;31691;51.972;5.672;2023-08-07T21:09:36;22.10;99.90
36434;DHT22;31691;51.972;5.672;2023-08-07T21:14:38;22.10;99.90
36434;DHT22;31691;51.972;5.672;2023-08-07T21:19:40;22.00;99.90
36434;DHT22;31691;51.972;5.672;2023-08-07T21:24:42;22.00;99.90
36434;DHT22;31691;51.972;5.672;2023-08-07T21:29:45;22.00;99.90
36434;DHT22;31691;51.972;5.672;2023-08-07T21:34:47;22.10;99.90
36434;DHT22;31691;51.972;5.672;2023-08-07T21:39:49;22.20;99.90
36434;DHT22;31691;51.972;5.672;2023-08-07T21:44:52;22.30;99.90
36434;DHT22;31691;51.972;5.672;2023-08-07T21:49:54;22.40;99.90
36434;DHT22;31691;51.972;5.672;2023-08-07T21:54:56;22.50;99.90
36434;DHT22;31691;51.972;5.672;2023-08-07T21:59:58;22.60;99.90
36434;DHT22;31691;51.972;5.672;2023-08-07T22:05:01;22.60;99.90
36434;DHT22;31691;51.972;5.672;2023-08-07T22:10:05;22.50;99.90
36434;DHT22;31691;51.972;5.672;2023-08-07T22:15:08;22.60;99.90
36434;DHT22;31691;51.972;5.672;2023-08-07T22:20:11;22.80;99.90
36434;DHT22;31691;51.972;5.672;2023-08-07T22:25:14;22.80;99.90
36434;DHT22;31691;51.972;5.672;2023-08-07T22:30:17;22.80;99.90
36434;DHT22;31691;51.972;5.672;2023-08-07T22:35:19;22.90;99.90
36434;DHT22;31691;51.972;5.672;2023-08-07T22:40:21;22.90;99.90
36434;DHT22;31691;51.972;5.672;2023-08-07T22:45:25;22.80;99.90
36434;DHT22;31691;51.972;5.672;2023-08-07T22:50:27;22.60;99.90
36434;DHT22;31691;51.972;5.672;2023-08-07T22:55:30;22.50;99.90
36434;DHT22;31691;51.972;5.672;2023-08-07T23:00:32;22.50;99.90
36434;DHT22;31691;51.972;5.672;2023-08-07T23:05:35;22.40;99.90
36434;DHT22;31691;51.972;5.672;2023-08-07T23:10:38;22.30;99.90
36434;DHT22;31691;51.972;5.672;2023-08-07T23:15:40;22.10;99.90
36434;DHT22;31691;51.972;5.672;2023-08-07T23:20:42;21.80;99.90
36434;DHT22;31691;51.972;5.672;2023-08-07T23:25:44;21.70;99.90
36434;DHT22;31691;51.972;5.672;2023-08-07T23:30:46;21.50;99.90
36434;DHT22;31691;51.972;5.672;2023-08-07T23:35:48;21.40;99.90
36434;DHT22;31691;51.972;5.672;2023-08-07T23:40:50;21.30;99.90
36434;DHT22;31691;51.972;5.672;2023-08-07T23:45:53;21.20;99.90
36434;DHT22;31691;51.972;5.672;2023-08-07T23:50:55;21.20;99.90
36434;DHT22;31691;51.972;5.672;2023-08-07T23:55:57;21.20;99.90
